Time;durP1;ratioP1;P1;durP2;ratioP2;P2;SDS_P1;SDS_P2;PMS_P1;PMS_P2;Temp;Humidity;BMP_temperature;BMP_pressure;BME280_temperature;BME280_humidity;BME280_pressure;Samples;Min_cycle;Max_cycle;Signal;HPM_P1;HPM_P2
2024/01/27 00:00:30;;;;;;;4.70;4.30;;;;;;;2.34;100.00;100099.09;87121;264;136745;-74
2024/01/27 00:02:32;;;;;;;4.90;4.50;;;;;;;2.28;100.00;100096.44;87316;267;24125;-71
2024/01/27 00:04:36;;;;;;;5.60;5.10;;;;;;;2.23;100.00;100101.84;87135;275;136297;-71
2024/01/27 00:06:39;;;;;;;5.10;4.70;;;;;;;2.17;100.00;100106.61;87197;272;22563;-71
2024/01/27 00:08:41;;;;;;;5.30;4.80;;;;;;;2.19;100.00;100101.52;87070;271;137220;-70
2024/01/27 00:10:45;;;;;;;3.80;3.60;;;;;;;2.24;100.00;100099.08;87318;267;25108;-74
2024/01/27 00:12:47;;;;;;;4.80;4.40;;;;;;;2.24;100.00;100099.30;87269;279;136962;-70
2024/01/27 00:14:50;;;;;;;5.30;4.40;;;;;;;2.21;100.00;100098.85;87174;279;25090;-71
2024/01/27 00:16:53;;;;;;;5.00;4.60;;;;;;;2.12;100.00;100101.96;87444;272;136270;-72
2024/01/27 00:18:56;;;;;;;5.10;4.80;;;;;;;2.04;100.00;100099.36;87140;281;24013;-71
2024/01/27 00:20:58;;;;;;;5.80;5.20;;;;;;;1.96;100.00;100097.63;87173;272;135917;-72
2024/01/27 00:22:59;;;;;;;4.50;4.10;;;;;;;1.92;100.00;100100.73;87278;279;22563;-70
2024/01/27 00:27:03;;;;;;;5.00;4.40;;;;;;;1.85;100.00;100096.46;85046;305;607731;-71
2024/01/27 00:29:05;;;;;;;5.00;4.60;;;;;;;1.88;100.00;100094.11;86386;281;137309;-68
2024/01/27 00:31:07;;;;;;;4.90;4.60;;;;;;;1.96;100.00;100092.89;86352;289;23680;-70
2024/01/27 00:33:09;;;;;;;4.40;4.10;;;;;;;1.98;100.00;100092.91;86176;288;135440;-70
2024/01/27 00:35:14;;;;;;;5.20;4.70;;;;;;;1.94;100.00;100092.84;86437;283;22545;-72
2024/01/27 00:37:16;;;;;;;4.40;4.10;;;;;;;1.93;100.00;100091.77;86633;276;136007;-71
2024/01/27 00:39:20;;;;;;;5.80;5.30;;;;;;;1.92;100.00;100092.34;86782;277;25209;-70
2024/01/27 00:41:21;;;;;;;5.30;4.80;;;;;;;1.99;100.00;100093.30;86378;275;776683;-71
2024/01/27 00:43:23;;;;;;;4.30;4.00;;;;;;;2.09;100.00;100090.06;86823;280;22552;-69
2024/01/27 00:45:27;;;;;;;4.60;4.30;;;;;;;2.13;100.00;100088.70;86826;272;136434;-70
2024/01/27 00:47:29;;;;;;;5.10;4.60;;;;;;;2.13;100.00;100091.65;86848;275;22486;-72
2024/01/27 00:49:31;;;;;;;5.70;5.20;;;;;;;2.12;100.00;100090.05;86753;283;136064;-71
2024/01/27 00:51:33;;;;;;;5.30;4.80;;;;;;;2.07;100.00;100092.42;86668;283;22719;-70
2024/01/27 00:53:35;;;;;;;5.40;4.90;;;;;;;2.05;100.00;100088.04;86715;272;136030;-71
2024/01/27 00:55:37;;;;;;;5.90;5.50;;;;;;;2.03;100.00;100089.59;86751;277;22554;-69
2024/01/27 00:57:39;;;;;;;5.70;5.10;;;;;;;2.03;100.00;100092.42;86715;275;135698;-72
2024/01/27 00:59:41;;;;;;;5.10;4.60;;;;;;;2.08;100.00;100094.73;86770;272;22667;-70
2024/01/27 01:01:43;;;;;;;4.80;4.30;;;;;;;2.18;100.00;100094.37;86631;276;136574;-71
2024/01/27 01:03:45;;;;;;;4.20;3.90;;;;;;;2.27;100.00;100092.73;86742;280;22645;-72
2024/01/27 01:05:49;;;;;;;4.10;3.70;;;;;;;2.31;100.00;100093.59;86838;275;136273;-71
2024/01/27 01:07:51;;;;;;;4.00;3.70;;;;;;;2.26;100.00;100093.81;86849;275;22565;-72
2024/01/27 01:09:53;;;;;;;2.90;2.70;;;;;;;2.18;100.00;100095.10;86664;284;136966;-71
2024/01/27 01:11:55;;;;;;;5.60;4.30;;;;;;;2.08;100.00;100091.94;86879;275;24195;-70
2024/01/27 01:13:57;;;;;;;4.50;4.10;;;;;;;2.03;100.00;100092.58;86851;277;135992;-70
2024/01/27 01:15:59;;;;;;;4.80;4.40;;;;;;;2.08;100.00;100092.30;86511;281;23946;-71
2024/01/27 01:18:01;;;;;;;5.40;4.90;;;;;;;2.14;100.00;100091.29;86848;275;136469;-71
2024/01/27 01:20:04;;;;;;;5.80;5.30;;;;;;;2.15;100.00;100086.96;86784;283;137214;-70
2024/01/27 01:22:06;;;;;;;5.40;5.00;;;;;;;2.10;100.00;100090.76;87040;275;22567;-71
2024/01/27 01:24:12;;;;;;;5.10;4.50;;;;;;;2.04;100.00;100095.83;86856;283;137361;-71
2024/01/27 01:26:14;;;;;;;5.40;4.90;;;;;;;2.01;100.00;100094.52;86860;275;25217;-70
2024/01/27 01:28:16;;;;;;;5.80;5.20;;;;;;;1.96;100.00;100091.29;86725;272;136152;-72
2024/01/27 01:30:18;;;;;;;6.70;4.40;;;;;;;1.98;100.00;100090.79;86792;272;23570;-71
2024/01/27 01:32:20;;;;;;;4.60;4.20;;;;;;;2.03;100.00;100087.14;86882;271;136664;-75
2024/01/27 01:34:21;;;;;;;3.80;3.60;;;;;;;2.02;100.00;100089.52;86863;271;25093;-71
2024/01/27 01:36:24;;;;;;;4.70;4.40;;;;;;;1.97;100.00;100092.61;86805;271;137496;-72
2024/01/27 01:38:27;;;;;;;4.50;4.20;;;;;;;1.90;100.00;100090.79;86989;273;22577;-70
2024/01/27 01:40:28;;;;;;;5.60;5.20;;;;;;;1.81;100.00;100088.83;86834;271;137265;-71
2024/01/27 01:42:30;;;;;;;4.70;4.30;;;;;;;1.72;100.00;100089.39;86872;271;22656;-71
2024/01/27 01:44:33;;;;;;;5.00;4.70;;;;;;;1.64;100.00;100083.61;86806;275;136169;-70
2024/01/27 01:46:35;;;;;;;5.00;4.50;;;;;;;1.61;100.00;100081.32;86935;276;22719;-71
2024/01/27 01:48:36;;;;;;;4.40;4.10;;;;;;;1.65;100.00;100079.71;86839;275;136799;-72
2024/01/27 01:50:39;;;;;;;4.60;4.20;;;;;;;1.72;100.00;100079.95;86966;283;22548;-72
2024/01/27 01:52:43;;;;;;;4.00;3.70;;;;;;;1.77;100.00;100076.86;86846;271;136441;-70
2024/01/27 01:54:49;;;;;;;4.40;4.10;;;;;;;1.80;100.00;100075.80;86977;279;22545;-70
2024/01/27 01:56:51;;;;;;;4.00;3.70;;;;;;;1.78;100.00;100075.39;86799;279;135822;-71
2024/01/27 01:58:54;;;;;;;4.30;3.90;;;;;;;1.70;100.00;100076.23;87314;275;23275;-73
2024/01/27 02:00:57;;;;;;;4.00;3.70;;;;;;;1.62;100.00;100075.23;86958;275;135688;-70
2024/01/27 02:02:59;;;;;;;5.70;5.20;;;;;;;1.55;100.00;100075.69;86951;275;25156;-69
2024/01/27 02:05:01;;;;;;;5.30;4.80;;;;;;;1.60;100.00;100074.39;86832;275;137470;-70
2024/01/27 02:07:04;;;;;;;4.30;4.00;;;;;;;1.69;100.00;100076.04;87004;274;24011;-72
2024/01/27 02:09:06;;;;;;;5.00;4.50;;;;;;;1.75;100.00;100078.14;86880;270;136204;-73
2024/01/27 02:11:08;;;;;;;4.10;3.70;;;;;;;1.76;100.00;100076.65;86896;279;23725;-71
2024/01/27 02:13:19;;;;;;;4.50;4.10;;;;;;;1.73;100.00;100080.94;86806;271;135825;-69
2024/01/27 02:15:22;;;;;;;5.10;4.60;;;;;;;1.67;100.00;100077.42;86773;276;25256;-70
2024/01/27 02:17:24;;;;;;;4.70;4.30;;;;;;;1.64;100.00;100076.79;86794;279;135936;-74
2024/01/27 02:19:26;;;;;;;4.40;4.00;;;;;;;1.64;100.00;100076.64;86875;280;23752;-69
2024/01/27 02:21:28;;;;;;;5.00;4.30;;;;;;;1.69;100.00;100072.99;86849;276;138503;-70
2024/01/27 02:23:30;;;;;;;4.50;4.20;;;;;;;1.81;100.00;100077.56;86999;276;22575;-70
2024/01/27 02:25:32;;;;;;;2.60;2.40;;;;;;;1.91;100.00;100079.64;86684;272;136383;-70
2024/01/27 02:27:34;;;;;;;4.30;4.00;;;;;;;1.96;100.00;100076.73;86878;283;25127;-71
2024/01/27 02:29:36;;;;;;;3.10;2.90;;;;;;;1.95;100.00;100084.21;86744;271;135642;-70
2024/01/27 02:31:37;;;;;;;3.30;3.00;;;;;;;1.92;100.00;100078.89;87059;274;25181;-72
2024/01/27 02:33:39;;;;;;;4.10;3.80;;;;;;;1.91;100.00;100080.36;86985;281;135856;-71
2024/01/27 02:35:43;;;;;;;4.00;3.70;;;;;;;1.91;100.00;100082.98;87124;276;22594;-71
2024/01/27 02:37:45;;;;;;;4.00;3.70;;;;;;;1.91;100.00;100085.13;86854;270;135924;-70
2024/01/27 02:39:47;;;;;;;3.10;2.90;;;;;;;1.93;100.00;100084.34;86944;271;25236;-70
2024/01/27 02:41:50;;;;;;;3.00;2.80;;;;;;;1.98;100.00;100087.64;86790;271;136715;-69
2024/01/27 02:43:52;;;;;;;3.50;3.30;;;;;;;1.97;100.00;100085.79;86914;283;22609;-71
2024/01/27 02:45:56;;;;;;;3.50;2.90;;;;;;;1.96;100.00;100087.80;86946;284;137111;-70
2024/01/27 02:48:00;;;;;;;3.70;3.40;;;;;;;1.94;100.00;100092.48;86981;283;25271;-70
2024/01/27 02:50:03;;;;;;;3.60;3.30;;;;;;;1.90;100.00;100095.69;87071;276;136619;-70
2024/01/27 02:52:05;;;;;;;3.30;3.10;;;;;;;1.85;100.00;100097.87;86897;283;136144;-71
2024/01/27 02:54:07;;;;;;;3.60;3.30;;;;;;;1.80;100.00;100097.98;86880;275;23656;-69
2024/01/27 02:56:08;;;;;;;3.70;3.50;;;;;;;1.77;100.00;100098.74;86902;274;136447;-71
2024/01/27 02:58:10;;;;;;;3.60;3.40;;;;;;;1.78;100.00;100100.27;86946;268;26201;-70
2024/01/27 03:00:13;;;;;;;3.60;3.30;;;;;;;1.82;100.00;100099.39;86858;271;138120;-69
2024/01/27 03:02:15;;;;;;;3.00;2.80;;;;;;;1.87;100.00;100099.48;86930;274;24177;-70
2024/01/27 03:04:17;;;;;;;2.80;2.60;;;;;;;1.92;100.00;100100.75;87412;274;137877;-70
2024/01/27 03:06:19;;;;;;;3.50;3.30;;;;;;;1.90;100.00;100098.29;86832;279;22559;-69
2024/01/27 03:08:23;;;;;;;2.80;2.60;;;;;;;1.86;100.00;100100.28;86835;283;136144;-70
2024/01/27 03:10:25;;;;;;;3.60;3.30;;;;;;;1.83;100.00;100103.29;86785;271;22568;-71
2024/01/27 03:12:27;;;;;;;2.90;2.60;;;;;;;1.82;100.00;100104.52;86738;276;136034;-70
2024/01/27 03:14:29;;;;;;;3.70;3.40;;;;;;;1.80;100.00;100103.04;86823;276;22602;-70
2024/01/27 03:16:33;;;;;;;3.20;3.00;;;;;;;1.83;100.00;100100.88;87113;271;136534;-69
2024/01/27 03:18:36;;;;;;;4.00;2.70;;;;;;;1.88;100.00;100099.06;86911;279;23913;-70
2024/01/27 03:20:38;;;;;;;3.80;3.50;;;;;;;1.91;100.00;100099.42;86903;274;136917;-71
2024/01/27 03:22:41;;;;;;;4.70;3.40;;;;;;;1.95;100.00;100098.04;86899;274;22735;-71
2024/01/27 03:24:43;;;;;;;3.10;2.70;;;;;;;1.96;100.00;100096.41;86930;279;136747;-69
2024/01/27 03:26:45;;;;;;;3.00;2.80;;;;;;;1.92;100.00;100097.08;86895;279;22589;-71
2024/01/27 03:28:47;;;;;;;4.00;3.60;;;;;;;1.86;100.00;100098.84;86762;276;135923;-71
2024/01/27 03:30:49;;;;;;;4.70;4.30;;;;;;;1.79;100.00;100099.11;86751;276;22548;-69
2024/01/27 03:32:50;;;;;;;3.60;3.30;;;;;;;1.75;100.00;100097.17;86869;276;137358;-71
2024/01/27 03:34:53;;;;;;;3.20;3.10;;;;;;;1.79;100.00;100096.38;87008;274;24152;-71
2024/01/27 03:36:59;;;;;;;3.00;2.80;;;;;;;1.84;100.00;100094.34;86911;274;136849;-71
2024/01/27 03:39:01;;;;;;;3.50;3.20;;;;;;;1.86;100.00;100096.10;86963;274;23797;-72
2024/01/27 03:41:04;;;;;;;3.70;3.50;;;;;;;1.88;100.00;100095.00;87000;274;136521;-71
2024/01/27 03:43:05;;;;;;;3.20;3.00;;;;;;;1.86;100.00;100097.10;86865;272;22567;-70
2024/01/27 03:45:07;;;;;;;2.90;2.70;;;;;;;1.81;100.00;100092.80;86691;270;136050;-70
2024/01/27 03:47:10;;;;;;;2.40;2.30;;;;;;;1.78;100.00;100094.36;86705;274;25198;-71
2024/01/27 03:49:12;;;;;;;3.50;3.20;;;;;;;1.73;100.00;100093.49;86823;267;136887;-72
2024/01/27 03:51:14;;;;;;;3.50;3.10;;;;;;;1.69;100.00;100095.29;86944;279;22561;-72
2024/01/27 03:53:15;;;;;;;3.90;3.70;;;;;;;1.72;100.00;100092.88;86866;283;138024;-70
2024/01/27 03:55:17;;;;;;;2.90;2.70;;;;;;;1.78;100.00;100095.68;87338;271;25082;-72
2024/01/27 03:57:20;;;;;;;2.90;2.80;;;;;;;1.81;100.00;100093.00;87194;267;138269;-71
2024/01/27 03:59:22;;;;;;;4.00;3.60;;;;;;;1.81;100.00;100097.91;87471;271;26923;-72
2024/01/27 04:01:24;;;;;;;3.50;3.30;;;;;;;1.79;100.00;100102.48;86998;279;136363;-70
2024/01/27 04:03:26;;;;;;;4.00;3.40;;;;;;;1.73;100.00;100099.14;87160;275;22858;-71
2024/01/27 04:05:31;;;;;;;4.20;3.90;;;;;;;1.69;100.00;100098.07;87162;275;136257;-70
2024/01/27 04:07:33;;;;;;;4.00;3.70;;;;;;;1.67;100.00;100098.14;87405;275;22558;-69
2024/01/27 04:09:35;;;;;;;3.00;2.80;;;;;;;1.68;100.00;100097.17;87245;267;137862;-69
2024/01/27 04:11:37;;;;;;;3.30;3.00;;;;;;;1.73;100.00;100098.20;87199;271;22576;-69
2024/01/27 04:13:39;;;;;;;3.40;3.10;;;;;;;1.77;100.00;100101.27;87278;278;138603;-70
2024/01/27 04:15:41;;;;;;;2.90;2.70;;;;;;;1.77;100.00;100103.55;87143;268;22601;-70
2024/01/27 04:17:43;;;;;;;3.60;3.40;;;;;;;1.77;100.00;100105.30;87028;273;137491;-71
2024/01/27 04:19:45;;;;;;;2.80;2.70;;;;;;;1.73;100.00;100104.36;87193;268;25242;-69
2024/01/27 04:21:47;;;;;;;4.70;3.70;;;;;;;1.68;100.00;100106.76;87007;281;137675;-68
2024/01/27 04:23:49;;;;;;;3.70;3.50;;;;;;;1.64;100.00;100102.09;87264;267;22574;-69
2024/01/27 04:25:51;;;;;;;3.50;3.30;;;;;;;1.61;100.00;100107.06;89930;267;137163;-70
2024/01/27 04:27:53;;;;;;;3.80;3.50;;;;;;;1.60;100.00;100104.32;87538;278;22577;-72
2024/01/27 04:29:56;;;;;;;3.70;3.40;;;;;;;1.66;100.00;100108.32;87216;271;136803;-71
2024/01/27 04:31:58;;;;;;;3.40;3.10;;;;;;;1.74;100.00;100110.23;87308;271;22558;-70
2024/01/27 04:34:00;;;;;;;3.40;3.10;;;;;;;1.78;100.00;100110.11;87294;279;136800;-71
2024/01/27 04:36:02;;;;;;;3.10;2.80;;;;;;;1.78;100.00;100112.42;87299;267;22568;-70
2024/01/27 04:38:04;;;;;;;3.20;2.90;;;;;;;1.78;100.00;100111.02;87055;272;25424;-71
2024/01/27 04:40:07;;;;;;;3.50;3.30;;;;;;;1.76;100.00;100109.77;87078;272;136558;-70
2024/01/27 04:42:09;;;;;;;3.40;3.20;;;;;;;1.72;100.00;100114.93;87235;271;23948;-70
2024/01/27 04:44:11;;;;;;;3.80;3.60;;;;;;;1.69;100.00;100110.66;87184;271;136622;-70
2024/01/27 04:46:13;;;;;;;3.40;3.10;;;;;;;1.68;100.00;100112.74;87273;271;22549;-71
2024/01/27 04:48:15;;;;;;;3.60;3.30;;;;;;;1.67;100.00;100114.17;87156;273;137771;-71
2024/01/27 04:50:20;;;;;;;3.50;3.20;;;;;;;1.74;100.00;100115.51;87192;276;24008;-71
2024/01/27 04:52:22;;;;;;;3.10;2.90;;;;;;;1.82;100.00;100115.68;87152;272;137091;-72
2024/01/27 04:54:25;;;;;;;2.80;2.60;;;;;;;1.87;100.00;100118.35;87203;268;23843;-70
2024/01/27 04:56:26;;;;;;;2.30;2.20;;;;;;;1.92;100.00;100117.27;87115;272;137027;-70
2024/01/27 04:58:29;;;;;;;2.70;2.50;;;;;;;1.92;100.00;100116.55;87239;272;25233;-70
2024/01/27 05:00:31;;;;;;;2.60;2.40;;;;;;;1.85;100.00;100115.91;87203;271;137603;-72
2024/01/27 05:02:33;;;;;;;3.40;3.00;;;;;;;1.81;100.00;100120.03;87368;267;22632;-71
2024/01/27 05:04:37;;;;;;;2.20;2.10;;;;;;;1.76;100.00;100120.44;87304;271;137593;-69
2024/01/27 05:06:44;;;;;;;2.70;2.50;;;;;;;1.71;100.00;100125.02;87306;272;24052;-72
2024/01/27 05:08:48;;;;;;;3.10;2.60;;;;;;;1.76;100.00;100124.25;87196;279;136654;-71
2024/01/27 05:10:50;;;;;;;2.30;2.20;;;;;;;1.82;100.00;100128.13;87352;271;25348;-70
2024/01/27 05:12:52;;;;;;;3.10;2.90;;;;;;;1.83;100.00;100129.79;87141;268;136729;-71
2024/01/27 05:14:54;;;;;;;2.20;2.10;;;;;;;1.83;100.00;100130.66;87396;276;25122;-73
2024/01/27 05:16:56;;;;;;;2.40;2.30;;;;;;;1.77;100.00;100134.71;87248;267;136177;-72
2024/01/27 05:18:58;;;;;;;3.50;2.70;;;;;;;1.66;100.00;100129.70;87305;272;21524;-74
2024/01/27 05:21:00;;;;;;;2.40;2.30;;;;;;;1.59;100.00;100132.05;87313;271;136281;-72
2024/01/27 05:23:02;;;;;;;2.80;2.70;;;;;;;1.56;100.00;100137.80;87402;275;25153;-72
2024/01/27 05:25:04;;;;;;;2.70;2.50;;;;;;;1.60;100.00;100135.53;87338;279;137731;-72
2024/01/27 05:27:06;;;;;;;2.30;2.20;;;;;;;1.71;100.00;100138.21;87401;275;25132;-70
2024/01/27 05:29:08;;;;;;;1.80;1.70;;;;;;;1.78;100.00;100140.73;87410;266;136905;-70
2024/01/27 05:31:10;;;;;;;2.20;2.10;;;;;;;1.78;100.00;100144.29;87465;267;22582;-71
2024/01/27 05:33:12;;;;;;;2.70;2.60;;;;;;;1.71;100.00;100142.89;87079;280;135651;-70
2024/01/27 05:35:14;;;;;;;2.90;2.60;;;;;;;1.67;100.00;100146.39;87303;279;22571;-70
2024/01/27 05:37:16;;;;;;;2.60;2.50;;;;;;;1.65;100.00;100148.71;87333;267;137153;-72
2024/01/27 05:39:18;;;;;;;3.20;3.00;;;;;;;1.64;100.00;100146.16;87369;267;22572;-69
2024/01/27 05:41:19;;;;;;;3.10;2.90;;;;;;;1.67;100.00;100144.46;87308;279;136722;-70
2024/01/27 05:43:22;;;;;;;2.70;2.50;;;;;;;1.76;100.00;100144.75;87297;271;25236;-71
2024/01/27 05:45:26;;;;;;;3.00;2.80;;;;;;;1.81;100.00;100146.30;87450;268;136856;-70
2024/01/27 05:47:28;;;;;;;2.10;2.00;;;;;;;1.83;100.00;100146.41;87714;273;22598;-69
2024/01/27 05:49:31;;;;;;;2.00;1.90;;;;;;;1.82;100.00;100147.61;87851;275;137686;-70
2024/01/27 05:51:33;;;;;;;3.40;3.10;;;;;;;1.74;100.00;100147.90;87947;268;22655;-70
2024/01/27 05:53:36;;;;;;;2.70;2.50;;;;;;;1.64;100.00;100155.63;87983;264;136371;-70
2024/01/27 05:55:38;;;;;;;3.00;2.80;;;;;;;1.61;100.00;100157.29;87410;270;25155;-71
2024/01/27 05:57:41;;;;;;;3.00;2.50;;;;;;;1.66;100.00;100161.44;87339;267;137503;-70
2024/01/27 05:59:43;;;;;;;2.80;2.60;;;;;;;1.68;100.00;100163.18;87177;271;25124;-70
2024/01/27 06:01:45;;;;;;;3.10;2.80;;;;;;;1.67;100.00;100164.42;87272;275;137058;-69
2024/01/27 06:03:47;;;;;;;3.50;3.20;;;;;;;1.65;100.00;100161.33;87898;279;23429;-70
2024/01/27 06:05:49;;;;;;;4.10;3.80;;;;;;;1.58;100.00;100165.27;87174;279;136377;-72
2024/01/27 06:07:51;;;;;;;4.40;4.10;;;;;;;1.53;100.00;100166.39;87136;276;22655;-72
2024/01/27 06:09:52;;;;;;;3.70;3.40;;;;;;;1.51;100.00;100166.95;86942;280;135574;-72
2024/01/27 06:11:59;;;;;;;3.40;3.10;;;;;;;1.56;100.00;100166.13;87148;279;24100;-71
2024/01/27 06:14:00;;;;;;;3.60;3.30;;;;;;;1.63;100.00;100171.50;87201;272;137550;-72
2024/01/27 06:16:06;;;;;;;3.90;3.50;;;;;;;1.64;100.00;100170.31;87052;272;25209;-70
2024/01/27 06:18:08;;;;;;;3.30;3.10;;;;;;;1.62;100.00;100171.05;87259;267;25207;-75
2024/01/27 06:20:11;;;;;;;4.70;4.30;;;;;;;1.60;100.00;100173.30;87072;267;136762;-72
2024/01/27 06:22:14;;;;;;;4.30;4.00;;;;;;;1.58;100.00;100174.95;87860;271;22558;-73
2024/01/27 06:24:15;;;;;;;4.50;4.10;;;;;;;1.54;100.00;100174.74;87168;271;136230;-74
2024/01/27 06:26:18;;;;;;;4.10;3.70;;;;;;;1.52;100.00;100174.52;87417;275;25080;-70
2024/01/27 06:28:20;;;;;;;4.20;3.80;;;;;;;1.52;100.00;100172.30;87186;278;137917;-70
2024/01/27 06:30:21;;;;;;;5.30;4.20;;;;;;;1.57;100.00;100176.90;87241;271;24001;-68
2024/01/27 06:32:23;;;;;;;4.10;3.70;;;;;;;1.66;100.00;100182.46;87147;271;136776;-72
2024/01/27 06:34:25;;;;;;;4.90;4.00;;;;;;;1.71;100.00;100182.89;87169;280;25196;-70
2024/01/27 06:36:27;;;;;;;3.30;3.00;;;;;;;1.73;100.00;100184.42;87251;271;137051;-69
2024/01/27 06:38:31;;;;;;;5.00;4.40;;;;;;;1.74;100.00;100193.48;87395;268;23739;-69
2024/01/27 06:40:33;;;;;;;4.10;3.70;;;;;;;1.70;100.00;100191.73;87227;271;136276;-72
2024/01/27 06:42:35;;;;;;;5.00;4.50;;;;;;;1.66;100.00;100194.02;87640;267;23979;-75
2024/01/27 06:44:37;;;;;;;4.60;4.20;;;;;;;1.60;100.00;100195.97;86887;271;136846;-73
2024/01/27 06:46:39;;;;;;;3.20;3.00;;;;;;;1.60;100.00;100198.77;87294;271;22584;-72
2024/01/27 06:48:41;;;;;;;4.20;3.90;;;;;;;1.60;100.00;100203.61;87126;273;136631;-74
2024/01/27 06:50:43;;;;;;;4.30;4.00;;;;;;;1.59;100.00;100201.98;87011;273;25120;-76
2024/01/27 06:52:45;;;;;;;4.80;4.40;;;;;;;1.61;100.00;100201.84;87280;271;136877;-73
2024/01/27 06:54:47;;;;;;;4.20;3.90;;;;;;;1.65;100.00;100203.37;87072;273;23019;-75
2024/01/27 06:56:49;;;;;;;3.60;3.40;;;;;;;1.64;100.00;100205.75;86962;273;136978;-73
2024/01/27 06:58:51;;;;;;;4.00;3.70;;;;;;;1.64;100.00;100208.67;87191;279;25111;-73
2024/01/27 07:00:53;;;;;;;3.80;3.40;;;;;;;1.62;100.00;100206.43;86962;273;137527;-75
2024/01/27 07:02:58;;;;;;;5.50;3.50;;;;;;;1.64;100.00;100213.65;87612;271;22525;-73
2024/01/27 07:05:00;;;;;;;4.10;3.70;;;;;;;1.72;100.00;100213.10;87443;271;137441;-76
2024/01/27 07:07:02;;;;;;;3.60;3.30;;;;;;;1.78;100.00;100211.86;87612;267;25232;-73
2024/01/27 07:09:03;;;;;;;3.80;3.50;;;;;;;1.83;100.00;100217.38;87405;271;137686;-74
2024/01/27 07:11:05;;;;;;;3.40;3.10;;;;;;;1.84;100.00;100220.52;87757;279;25105;-71
2024/01/27 07:13:07;;;;;;;4.20;3.50;;;;;;;1.78;100.00;100219.37;87123;272;136164;-73
2024/01/27 07:15:09;;;;;;;4.70;4.30;;;;;;;1.69;100.00;100216.36;87336;274;24242;-76
2024/01/27 07:17:11;;;;;;;3.90;3.40;;;;;;;1.71;100.00;100218.58;87175;274;136883;-70
2024/01/27 07:19:13;;;;;;;3.40;3.10;;;;;;;1.78;100.00;100223.06;87298;261;22652;-70
2024/01/27 07:21:16;;;;;;;5.30;3.70;;;;;;;1.82;100.00;100222.72;87068;267;138114;-71
2024/01/27 07:23:19;;;;;;;4.50;4.00;;;;;;;1.84;100.00;100223.30;87511;267;22571;-71
2024/01/27 07:25:21;;;;;;;4.90;4.40;;;;;;;1.81;100.00;100228.05;87012;279;137153;-71
2024/01/27 07:27:23;;;;;;;3.90;3.60;;;;;;;1.76;100.00;100229.17;87040;275;25272;-71
2024/01/27 07:29:26;;;;;;;5.20;4.70;;;;;;;1.75;100.00;100232.42;87255;267;136462;-71
2024/01/27 07:31:27;;;;;;;5.10;4.70;;;;;;;1.76;100.00;100232.89;87129;279;22535;-74
2024/01/27 07:33:29;;;;;;;4.90;4.50;;;;;;;1.84;100.00;100233.08;87098;279;140449;-72
2024/01/27 07:35:31;;;;;;;4.90;4.50;;;;;;;1.93;100.00;100234.35;87128;279;22579;-74
2024/01/27 07:37:33;;;;;;;4.30;3.90;;;;;;;1.98;100.00;100231.34;86970;268;136857;-73
2024/01/27 07:39:35;;;;;;;4.70;4.10;;;;;;;2.04;100.00;100233.91;87145;279;22667;-71
2024/01/27 07:41:37;;;;;;;4.60;4.30;;;;;;;2.05;100.00;100229.30;87100;267;136233;-71
2024/01/27 07:43:39;;;;;;;4.90;4.20;;;;;;;2.04;100.00;100233.03;86909;268;22567;-73
2024/01/27 07:45:41;;;;;;;4.70;4.40;;;;;;;2.03;100.00;100228.80;87058;272;137341;-70
2024/01/27 07:47:44;;;;;;;4.80;4.10;;;;;;;2.02;100.00;100233.82;86954;279;25196;-74
2024/01/27 07:49:46;;;;;;;4.30;4.00;;;;;;;2.06;100.00;100237.30;86861;272;136750;-72
2024/01/27 07:51:48;;;;;;;4.10;3.80;;;;;;;2.11;100.00;100234.05;86963;269;22768;-71
2024/01/27 07:53:50;;;;;;;4.90;4.30;;;;;;;2.14;100.00;100235.30;86944;279;136257;-71
2024/01/27 07:55:53;;;;;;;4.00;3.70;;;;;;;2.15;100.00;100234.22;86987;272;22529;-68
2024/01/27 07:57:55;;;;;;;5.40;4.60;;;;;;;2.13;100.00;100234.33;87382;271;136875;-72
2024/01/27 07:59:58;;;;;;;5.60;5.10;;;;;;;2.14;100.00;100239.23;87134;267;22562;-70
2024/01/27 08:02:00;;;;;;;5.30;4.80;;;;;;;2.11;100.00;100237.54;87089;279;135703;-74
2024/01/27 08:04:03;;;;;;;4.90;4.40;;;;;;;2.17;100.00;100239.84;87063;271;137097;-67
2024/01/27 08:06:09;;;;;;;5.00;4.50;;;;;;;2.22;100.00;100239.35;89706;275;24891;-74
2024/01/27 08:08:11;;;;;;;7.10;5.40;;;;;;;2.22;100.00;100240.59;87315;279;137540;-70
2024/01/27 08:10:13;;;;;;;7.20;5.70;;;;;;;2.21;100.00;100241.20;87085;267;23197;-71
2024/01/27 08:12:15;;;;;;;4.80;4.40;;;;;;;2.13;100.00;100240.69;86853;271;137363;-70
2024/01/27 08:14:20;;;;;;;5.10;4.70;;;;;;;2.05;100.00;100241.43;87090;271;22573;-73
2024/01/27 08:16:22;;;;;;;5.60;5.00;;;;;;;2.01;100.00;100243.49;86954;271;137693;-74
2024/01/27 08:18:23;;;;;;;4.20;3.80;;;;;;;2.02;100.00;100243.58;87116;271;22567;-72
2024/01/27 08:20:25;;;;;;;4.10;3.80;;;;;;;2.10;100.00;100244.95;87061;267;136944;-75
2024/01/27 08:22:28;;;;;;;3.50;3.30;;;;;;;2.13;100.00;100247.86;87201;279;23830;-71
2024/01/27 08:24:30;;;;;;;4.60;4.20;;;;;;;2.11;100.00;100248.52;87096;279;136436;-72
2024/01/27 08:26:32;;;;;;;3.70;3.40;;;;;;;2.06;100.00;100251.47;87117;275;24772;-72
2024/01/27 08:28:34;;;;;;;3.60;3.30;;;;;;;2.05;100.00;100254.54;87312;270;136126;-73
2024/01/27 08:30:37;;;;;;;3.80;3.50;;;;;;;2.05;100.00;100257.88;87199;278;22592;-73
2024/01/27 08:32:39;;;;;;;5.40;4.50;;;;;;;2.08;100.00;100259.72;87270;267;136694;-74
2024/01/27 08:34:41;;;;;;;4.00;3.70;;;;;;;2.16;100.00;100259.02;87283;271;22520;-78
2024/01/27 08:36:44;;;;;;;4.80;4.40;;;;;;;2.22;100.00;100266.17;87129;271;138141;-74
2024/01/27 08:38:46;;;;;;;4.30;3.90;;;;;;;2.26;100.00;100268.79;87115;271;22574;-74
2024/01/27 08:40:48;;;;;;;4.70;4.30;;;;;;;2.25;100.00;100267.85;86523;279;529127;-73
2024/01/27 08:42:49;;;;;;;5.80;5.30;;;;;;;2.21;100.00;100270.47;87059;273;24074;-72
2024/01/27 08:44:53;;;;;;;5.90;4.90;;;;;;;2.18;100.00;100271.98;87014;279;136364;-71
2024/01/27 08:46:55;;;;;;;6.90;5.90;;;;;;;2.15;100.00;100273.27;87153;279;22643;-71
2024/01/27 08:49:02;;;;;;;6.90;5.30;;;;;;;2.19;100.00;100275.45;88179;267;136992;-72
2024/01/27 08:51:07;;;;;;;5.30;4.70;;;;;;;2.25;100.00;100276.30;87179;267;22529;-70
2024/01/27 08:53:09;;;;;;;7.10;6.00;;;;;;;2.28;100.00;100279.73;87144;275;136924;-71
2024/01/27 08:55:11;;;;;;;9.70;6.20;;;;;;;2.21;100.00;100276.11;87220;279;25178;-73
2024/01/27 08:57:13;;;;;;;6.20;5.60;;;;;;;2.13;100.00;100278.55;87124;267;136547;-70
2024/01/27 08:59:15;;;;;;;8.20;6.10;;;;;;;2.06;100.00;100283.91;87236;271;25121;-72
2024/01/27 09:01:17;;;;;;;5.10;4.60;;;;;;;2.02;100.00;100283.04;87131;271;136569;-71
2024/01/27 09:03:20;;;;;;;6.30;5.40;;;;;;;2.05;100.00;100282.02;87235;271;23098;-71
2024/01/27 09:05:22;;;;;;;5.60;4.40;;;;;;;2.07;100.00;100283.48;87063;279;136575;-72
2024/01/27 09:07:24;;;;;;;5.10;4.30;;;;;;;2.05;100.00;100282.90;87679;267;25280;-69
2024/01/27 09:09:28;;;;;;;6.60;4.30;;;;;;;1.98;100.00;100284.98;87663;275;136022;-71
2024/01/27 09:11:31;;;;;;;6.80;4.40;;;;;;;1.91;100.00;100287.07;87285;271;25162;-72
2024/01/27 09:13:33;;;;;;;4.80;4.30;;;;;;;1.86;100.00;100287.89;87090;271;137694;-74
2024/01/27 09:15:35;;;;;;;5.40;4.90;;;;;;;1.85;100.00;100287.83;87206;271;25255;-73
2024/01/27 09:17:37;;;;;;;5.00;4.30;;;;;;;1.94;100.00;100290.52;87035;271;136915;-74
2024/01/27 09:19:38;;;;;;;4.00;3.40;;;;;;;2.05;100.00;100289.60;87257;279;25127;-74
2024/01/27 09:21:40;;;;;;;3.20;3.00;;;;;;;2.12;100.00;100287.55;87013;267;137415;-71
2024/01/27 09:23:42;;;;;;;3.80;3.60;;;;;;;2.12;100.00;100289.55;87199;271;22619;-73
2024/01/27 09:25:44;;;;;;;5.50;3.80;;;;;;;2.06;100.00;100292.88;87078;271;136309;-72
2024/01/27 09:27:46;;;;;;;3.70;3.40;;;;;;;2.02;100.00;100288.97;87218;275;22572;-73
2024/01/27 09:29:48;;;;;;;4.70;4.30;;;;;;;2.01;100.00;100285.39;87046;268;137856;-72
2024/01/27 09:31:49;;;;;;;5.30;4.70;;;;;;;2.07;100.00;100288.02;87149;275;25092;-73
2024/01/27 09:33:53;;;;;;;5.10;4.70;;;;;;;2.14;100.00;100284.64;87044;276;136744;-74